Time;durP1;ratioP1;P1;durP2;ratioP2;P2;SDS_P1;SDS_P2;PMS_P1;PMS_P2;Temp;Humidity;BMP_temperature;BMP_pressure;BME280_temperature;BME280_humidity;BME280_pressure;Samples;Min_cycle;Max_cycle;Signal;HPM_P1;HPM_P2
2022/09/07 00:01:54;;;;;;;21.58;11.43;;;;;;;;;;5105327;28;20411;-79
2022/09/07 00:04:20;;;;;;;11.25;10.15;;;;;;;;;;5122825;27;20038;-80
2022/09/07 00:06:47;;;;;;;12.40;11.10;;;;;;;;;;5125244;27;20114;-81
2022/09/07 00:09:13;;;;;;;14.00;10.82;;;;;;;;;;5121210;27;20506;-80
2022/09/07 00:11:38;;;;;;;19.05;11.80;;;18.80;99.90;;;;;;5132496;27;20053;-79
2022/09/07 00:14:06;;;;;;;14.98;11.85;;;19.10;99.90;;;;;;5115902;27;20491;-79
2022/09/07 00:16:32;;;;;;;15.73;11.30;;;;;;;;;;5122242;27;20422;-79
2022/09/07 00:19:00;;;;;;;17.05;11.93;;;19.10;99.90;;;;;;5121596;27;20043;-79
2022/09/07 00:21:26;;;;;;;15.05;12.02;;;19.00;99.90;;;;;;5121320;27;20121;-79
2022/09/07 00:23:53;;;;;;;14.52;12.05;;;;;;;;;;5127946;27;20078;-79
2022/09/07 00:26:21;;;;;;;18.70;11.93;;;18.80;99.90;;;;;;5122720;27;20042;-79
2022/09/07 00:28:48;;;;;;;16.45;10.85;;;18.80;99.90;;;;;;5121316;27;20043;-80
2022/09/07 00:31:17;;;;;;;12.90;10.60;;;18.80;99.90;;;;;;5121757;28;20042;-80
2022/09/07 00:33:43;;;;;;;14.10;10.65;;;;;;;;;;5122218;28;20062;-79
2022/09/07 00:36:09;;;;;;;12.77;11.50;;;;;;;;;;5104947;28;20039;-79
2022/09/07 00:38:36;;;;;;;15.20;11.55;;;;;;;;;;5129781;28;20039;-83
2022/09/07 00:41:02;;;;;;;13.63;11.20;;;;;;;;;;5138580;27;20035;-82
2022/09/07 00:43:34;;;;;;;12.75;11.45;;;18.60;99.90;;;;;;5100577;28;20047;-83
2022/09/07 00:46:01;;;;;;;14.68;12.38;;;18.70;99.90;;;;;;5121467;28;20104;-82
2022/09/07 00:48:42;;;;;;;15.52;12.07;;;18.70;99.90;;;;;;5121320;28;20050;-83
2022/09/07 00:51:12;;;;;;;17.08;11.52;;;18.70;99.90;;;;;;5097255;28;20043;-82
2022/09/07 00:53:52;;;;;;;13.18;11.75;;;20.30;99.90;;;;;;5110112;27;20042;-83
2022/09/07 00:56:19;;;;;;;12.73;11.43;;;;;;;;;;5115359;28;20050;-82
2022/09/07 00:58:45;;;;;;;16.15;12.43;;;;;;;;;;5138677;27;20054;-83
2022/09/07 01:01:11;;;;;;;18.02;11.73;;;;;;;;;;5104440;27;20464;-83
2022/09/07 01:03:40;;;;;;;14.15;11.43;;;18.60;99.90;;;;;;5104438;28;20043;-84
2022/09/07 01:06:14;;;;;;;13.82;11.50;;;18.60;99.90;;;;;;5120940;28;20047;-80
2022/09/07 01:08:41;;;;;;;13.38;11.98;;;18.40;99.90;;;;;;5104247;28;20127;-81
2022/09/07 01:11:07;;;;;;;14.02;10.85;;;18.70;99.90;;;;;;5104632;28;20047;-79
2022/09/07 01:13:34;;;;;;;15.63;12.07;;;18.10;99.90;;;;;;5130436;28;20555;-79
2022/09/07 01:16:00;;;;;;;19.67;11.13;;;;;;;;;;5102576;28;20043;-80
2022/09/07 01:18:41;;;;;;;15.57;11.48;;;18.30;99.90;;;;;;5128949;28;20047;-79
2022/09/07 01:21:22;;;;;;;16.05;11.05;;;18.50;99.90;;;;;;5121854;28;20483;-79
2022/09/07 01:24:03;;;;;;;14.30;11.48;;;18.30;99.90;;;;;;5114638;28;20499;-79
2022/09/07 01:26:52;;;;;;;13.75;12.07;;;18.30;99.90;;;;;;5121705;28;20573;-79
2022/09/07 01:29:28;;;;;;;14.50;12.10;;;18.30;99.90;;;;;;5107397;27;20047;-79
2022/09/07 01:32:22;;;;;;;16.95;12.30;;;18.20;99.90;;;;;;5124873;27;20039;-79
2022/09/07 01:34:52;;;;;;;13.68;11.48;;;18.20;99.90;;;;;;5125292;27;20086;-79
2022/09/07 01:37:33;;;;;;;21.25;13.25;;;18.10;99.90;;;;;;5120699;27;20542;-79
2022/09/07 01:40:14;;;;;;;50.53;16.25;;;18.30;99.90;;;;;;5124732;27;20508;-84
2022/09/07 01:42:50;;;;;;;22.88;14.25;;;17.90;99.90;;;;;;5125575;27;20092;-82
2022/09/07 01:45:18;;;;;;;24.52;14.70;;;18.00;99.90;;;;;;5107325;27;20390;-84
2022/09/07 01:47:50;;;;;;;25.40;13.55;;;17.60;99.90;;;;;;5107964;27;20118;-87
2022/09/07 01:50:22;;;;;;;19.17;13.73;;;17.40;99.90;;;;;;5108030;27;20088;-89
2022/09/07 01:52:59;;;;;;;18.00;12.65;;;17.60;99.90;;;;;;5128473;27;20039;-93
2022/09/07 01:55:40;;;;;;;17.30;11.80;;;17.60;99.90;;;;;;5093125;27;20046;-91
2022/09/07 01:58:37;;;;;;;16.42;12.15;;;17.70;99.90;;;;;;5125598;27;20126;-91
2022/09/07 02:01:10;;;;;;;15.23;11.50;;;;;;;;;;5122549;27;20039;-88
2022/09/07 02:03:36;;;;;;;13.85;11.18;;;;;;;;;;5100985;27;20556;-90
2022/09/07 02:06:06;;;;;;;11.02;9.40;;;;;;;;;;5132085;27;20046;-90
2022/09/07 02:08:44;;;;;;;10.68;8.57;;;17.70;99.90;;;;;;5142109;27;20061;-87
2022/09/07 02:11:23;;;;;;;10.30;8.27;;;17.80;99.90;;;;;;5108498;27;20088;-86
2022/09/07 02:14:22;;;;;;;12.88;8.07;;;17.90;99.90;;;;;;5106756;27;20045;-92
2022/09/07 02:16:57;;;;;;;11.45;8.20;;;17.90;99.90;;;;;;5040476;28;20056;-90
2022/09/07 02:19:25;;;;;;;8.23;7.28;;;17.60;99.90;;;;;;5015649;28;20072;-85
2022/09/07 02:21:59;;;;;;;8.52;7.63;;;17.80;99.90;;;;;;5008317;28;20057;-94
2022/09/07 02:24:30;;;;;;;;;;;17.70;99.90;;;;;;5026518;28;20041;-85
2022/09/07 02:26:58;;;;;;;10.15;6.75;;;17.90;99.90;;;;;;5024664;28;19921;-86
2022/09/07 02:29:24;;;;;;;10.35;8.02;;;;;;;;;;5022782;28;20104;-87
2022/09/07 02:31:50;;;;;;;7.45;6.57;;;;;;;;;;5014259;28;20632;-85
2022/09/07 02:34:16;;;;;;;6.80;6.05;;;17.70;99.90;;;;;;5007863;28;20521;-86
2022/09/07 02:36:45;;;;;;;10.88;6.95;;;17.80;99.90;;;;;;5026148;28;20079;-85
2022/09/07 02:39:11;;;;;;;7.60;6.80;;;;;;;;;;5017321;28;20041;-85
2022/09/07 02:41:40;;;;;;;12.07;7.72;;;17.60;99.90;;;;;;5024061;28;20052;-85
2022/09/07 02:44:10;;;;;;;9.25;7.00;;;17.80;99.90;;;;;;5025944;28;20493;-85
2022/09/07 02:46:45;;;;;;;7.85;7.00;;;17.70;99.90;;;;;;5003141;28;20409;-85
2022/09/07 02:49:11;;;;;;;10.93;7.80;;;;;;;;;;5017654;28;20084;-85
2022/09/07 02:52:03;;;;;;;11.05;8.32;;;17.60;99.90;;;;;;5022625;28;20049;-85
2022/09/07 02:54:59;;;;;;;8.80;7.90;;;17.80;99.90;;;;;;5133611;27;20042;-85
2022/09/07 02:57:34;;;;;;;8.75;6.97;;;;;;;;;;5133526;27;20104;-84
2022/09/07 03:00:00;;;;;;;9.63;6.47;;;;;;;;;;5142258;27;20054;-85
2022/09/07 03:02:26;;;;;;;8.45;6.18;;;;;;;;;;5144282;27;20043;-85
2022/09/07 03:04:59;;;;;;;9.88;6.40;;;17.90;99.90;;;;;;5140507;27;20513;-85
2022/09/07 03:07:32;;;;;;;8.60;5.83;;;17.80;99.90;;;;;;5122867;27;20032;-90
2022/09/07 03:10:01;;;;;;;11.03;5.60;;;17.80;99.90;;;;;;5104247;27;20063;-89
2022/09/07 03:12:38;;;;;;;7.07;5.47;;;17.80;99.90;;;;;;5098760;27;20310;-89
2022/09/07 03:15:05;;;;;;;7.35;5.65;;;17.80;99.90;;;;;;5099184;27;20046;-90
2022/09/07 03:17:31;;;;;;;6.72;5.50;;;;;;;;;;5129947;27;20039;-89
2022/09/07 03:19:57;;;;;;;9.65;5.22;;;;;;;;;;5139249;27;20050;-87
2022/09/07 03:22:23;;;;;;;6.90;5.28;;;;;;;;;;5103723;28;20055;-87
2022/09/07 03:24:49;;;;;;;9.40;5.78;;;;;;;;;;5108377;27;20047;-89
2022/09/07 03:27:15;;;;;;;6.07;5.47;;;;;;;;;;5140725;27;20042;-90
2022/09/07 03:29:41;;;;;;;10.32;5.97;;;;;;;;;;5140727;27;20035;-87
2022/09/07 03:32:07;;;;;;;7.57;6.00;;;;;;;;;;5141665;27;20395;-91
2022/09/07 03:34:33;;;;;;;11.50;6.63;;;;;;;;;;5102969;28;20040;-91
2022/09/07 03:36:59;;;;;;;8.27;6.22;;;;;;;;;;5137891;27;20039;-88
2022/09/07 03:39:25;;;;;;;8.32;6.32;;;;;;;;;;5141429;27;20414;-88
2022/09/07 03:41:51;;;;;;;8.40;6.32;;;;;;;;;;5106164;27;20144;-90
2022/09/07 03:44:17;;;;;;;8.55;6.03;;;17.90;99.90;;;;;;5106139;27;20088;-91
2022/09/07 03:46:43;;;;;;;8.32;5.88;;;;;;;;;;5104681;27;20047;-86
2022/09/07 03:49:09;;;;;;;13.90;7.25;;;;;;;;;;5114274;27;20050;-85
2022/09/07 03:51:35;;;;;;;9.45;6.40;;;;;;;;;;5130952;27;20043;-85
2022/09/07 03:54:01;;;;;;;10.52;6.80;;;;;;;;;;5106425;27;20054;-86
2022/09/07 03:56:27;;;;;;;8.10;5.68;;;;;;;;;;5105671;27;20531;-85
2022/09/07 03:58:54;;;;;;;10.50;6.25;;;17.50;99.90;;;;;;5140246;27;20049;-85
2022/09/07 04:01:22;;;;;;;6.80;5.70;;;17.70;99.90;;;;;;5104459;27;20559;-85
2022/09/07 04:03:48;;;;;;;7.15;5.32;;;;;;;;;;5122565;27;20043;-85
2022/09/07 04:06:15;;;;;;;11.80;6.28;;;17.60;99.90;;;;;;5139431;27;20566;-85
2022/09/07 04:08:42;;;;;;;7.38;5.82;;;17.70;99.90;;;;;;5105737;27;20047;-85
2022/09/07 04:11:12;;;;;;;6.03;5.45;;;17.60;99.90;;;;;;5105919;27;20127;-85
2022/09/07 04:13:38;;;;;;;7.13;6.07;;;;;;;;;;5088841;27;20047;-85
2022/09/07 04:16:17;;;;;;;7.10;5.20;;;17.50;99.90;;;;;;5106075;27;20039;-85
2022/09/07 04:18:43;;;;;;;8.02;5.03;;;;;;;;;;5106107;28;20053;-85
2022/09/07 04:21:09;;;;;;;5.28;4.38;;;;;;;;;;5097166;27;20038;-85
2022/09/07 04:23:39;;;;;;;6.72;4.97;;;17.60;99.90;;;;;;5140060;27;20047;-84
2022/09/07 04:26:06;;;;;;;8.18;5.53;;;;;;;;;;5138801;27;20486;-85
2022/09/07 04:28:32;;;;;;;8.30;5.93;;;;;;;;;;5139911;27;20046;-85
2022/09/07 04:31:01;;;;;;;5.78;5.28;;;17.40;99.90;;;;;;5139062;27;20035;-85
2022/09/07 04:33:30;;;;;;;8.02;5.32;;;17.40;99.90;;;;;;5104064;28;20042;-86
2022/09/07 04:35:59;;;;;;;5.32;4.82;;;17.30;99.90;;;;;;5121798;28;20046;-86
2022/09/07 04:38:26;;;;;;;7.13;4.90;;;;;;;;;;5105247;27;20043;-85
2022/09/07 04:41:08;;;;;;;6.85;5.53;;;17.20;99.90;;;;;;5105200;28;20099;-86
2022/09/07 04:43:34;;;;;;;8.48;5.75;;;;;;;;;;5097775;28;20040;-85
2022/09/07 04:46:05;;;;;;;7.55;5.10;;;17.60;99.90;;;;;;5128127;28;20054;-85
2022/09/07 04:48:31;;;;;;;8.07;5.22;;;;;;;;;;5122084;28;20616;-85
2022/09/07 04:51:04;;;;;;;7.03;4.53;;;17.10;99.90;;;;;;5105163;28;20138;-83
2022/09/07 04:53:30;;;;;;;6.82;4.97;;;17.20;99.90;;;;;;5120864;27;20057;-84
2022/09/07 04:55:59;;;;;;;8.40;5.22;;;17.10;99.90;;;;;;5105299;28;20039;-86
2022/09/07 04:58:25;;;;;;;7.60;6.10;;;;;;;;;;5130271;28;20501;-90
2022/09/07 05:00:51;;;;;;;5.60;5.10;;;;;;;;;;5112842;27;20382;-89
2022/09/07 05:03:17;;;;;;;6.72;5.72;;;;;;;;;;5139300;27;20096;-90
2022/09/07 05:05:44;;;;;;;7.15;5.85;;;;;;;;;;5107356;27;20039;-91
2022/09/07 05:08:10;;;;;;;7.03;6.20;;;;;;;;;;5109482;27;20510;-88
2022/09/07 05:10:36;;;;;;;8.95;6.22;;;;;;;;;;5109113;27;20047;-91
2022/09/07 05:13:02;;;;;;;8.82;6.30;;;;;;;;;;5105879;28;20100;-90
2022/09/07 05:15:29;;;;;;;6.20;5.55;;;;;;;;;;5110627;27;20368;-88
2022/09/07 05:17:55;;;;;;;6.65;5.60;;;;;;;;;;5142871;27;20092;-89
2022/09/07 05:20:21;;;;;;;7.47;6.35;;;;;;;;;;5108621;27;20126;-88
2022/09/07 05:22:47;;;;;;;11.10;8.13;;;;;;;;;;5108777;27;20039;-88
2022/09/07 05:25:14;;;;;;;8.90;7.45;;;;;;;;;;5142643;27;20035;-88
2022/09/07 05:27:41;;;;;;;10.45;7.70;;;;;;;;;;5105580;27;20048;-86
2022/09/07 05:30:07;;;;;;;9.93;7.70;;;17.10;99.90;;;;;;5110964;27;20100;-89
2022/09/07 05:32:33;;;;;;;9.90;7.32;;;;;;;;;;5109609;27;20118;-89
2022/09/07 05:34:59;;;;;;;9.07;8.15;;;;;;;;;;5108213;27;20149;-89
2022/09/07 05:37:25;;;;;;;11.40;7.93;;;;;;;;;;5137812;27;20175;-89
2022/09/07 05:39:53;;;;;;;14.30;9.43;;;;;;;;;;5142275;27;20207;-88
2022/09/07 05:42:19;;;;;;;11.70;9.30;;;;;;;;;;5104917;28;20036;-88
2022/09/07 05:44:45;;;;;;;14.23;9.82;;;;;;;;;;5109829;27;20054;-89
2022/09/07 05:47:12;;;;;;;11.95;8.75;;;;;;;;;;5142450;27;20042;-88
2022/09/07 05:49:38;;;;;;;13.93;9.30;;;;;;;;;;5108006;27;20134;-87
2022/09/07 05:52:04;;;;;;;11.88;9.75;;;;;;;;;;5108506;27;20398;-85
2022/09/07 05:54:30;;;;;;;11.75;9.88;;;;;;;;;;5104507;28;20043;-85
2022/09/07 05:56:56;;;;;;;15.38;11.07;;;;;;;;;;5111353;27;20035;-84
2022/09/07 05:59:22;;;;;;;14.13;10.23;;;;;;;;;;5106549;27;20138;-85
2022/09/07 06:01:48;;;;;;;12.35;10.95;;;;;;;;;;5108105;27;20074;-85
2022/09/07 06:04:14;;;;;;;13.48;11.90;;;;;;;;;;5124338;27;20130;-84
2022/09/07 06:06:40;;;;;;;14.98;12.90;;;;;;;;;;5139051;27;20047;-84
2022/09/07 06:09:06;;;;;;;12.70;11.40;;;;;;;;;;5107486;27;20391;-85
2022/09/07 06:11:32;;;;;;;17.85;12.18;;;;;;;;;;5108240;27;20553;-84
2022/09/07 06:13:58;;;;;;;19.40;13.23;;;;;;;;;;5107680;27;20074;-83
2022/09/07 06:16:24;;;;;;;18.90;13.25;;;;;;;;;;5107732;27;20440;-83
2022/09/07 06:18:50;;;;;;;14.25;12.20;;;;;;;;;;5142608;27;20045;-84
2022/09/07 06:21:21;;;;;;;14.15;12.65;;;17.30;99.90;;;;;;5141858;27;20039;-83
2022/09/07 06:23:48;;;;;;;17.67;14.07;;;17.40;99.90;;;;;;5107262;27;20410;-84
2022/09/07 06:26:15;;;;;;;16.30;12.82;;;17.20;99.90;;;;;;5108039;27;20451;-84
2022/09/07 06:40:12;;;;;;;21.80;15.27;;;;;;;;;;5118623;27;1285027;-83
2022/09/07 06:42:38;;;;;;;17.05;13.43;;;;;;;;;;5135669;27;20084;-83
2022/09/07 06:45:04;;;;;;;21.50;15.20;;;17.50;99.90;;;;;;5135244;27;20129;-83
2022/09/07 06:47:30;;;;;;;22.63;14.10;;;;;;;;;;5135334;27;20069;-83
2022/09/07 06:49:57;;;;;;;19.60;14.65;;;;;;;;;;5135473;27;20096;-84
2022/09/07 06:52:23;;;;;;;17.63;14.43;;;;;;;;;;5152085;27;20448;-84
2022/09/07 06:54:50;;;;;;;20.67;14.77;;;;;;;;;;5135423;27;20132;-84
2022/09/07 06:57:16;;;;;;;19.02;16.27;;;;;;;;;;5152323;27;20038;-84
2022/09/07 06:59:42;;;;;;;17.52;14.75;;;;;;;;;;5127328;27;20403;-84
2022/09/07 07:02:10;;;;;;;21.45;16.40;;;17.60;99.90;;;;;;5131338;27;20050;-83
2022/09/07 07:04:36;;;;;;;18.38;15.68;;;;;;;;;;5131827;27;20062;-84
2022/09/07 07:07:02;;;;;;;20.20;15.25;;;;;;;;;;5114900;27;20133;-84
2022/09/07 07:09:28;;;;;;;18.77;15.18;;;;;;;;;;5114034;27;20519;-83
2022/09/07 07:11:53;;;;;;;22.65;15.43;;;17.70;99.90;;;;;;5131067;27;20411;-83
2022/09/07 07:14:20;;;;;;;22.15;16.88;;;;;;;;;;5114161;27;20043;-84
2022/09/07 07:16:46;;;;;;;22.85;17.00;;;;;;;;;;5131837;27;20394;-84
2022/09/07 07:19:12;;;;;;;25.50;17.63;;;;;;;;;;5115009;27;20039;-83
2022/09/07 07:21:38;;;;;;;26.95;18.23;;;;;;;;;;5130832;27;20046;-86
2022/09/07 07:24:04;;;;;;;23.00;18.52;;;17.80;99.90;;;;;;5114741;27;20138;-86
2022/09/07 07:26:31;;;;;;;20.92;17.85;;;;;;;;;;5113851;27;20173;-86
2022/09/07 07:28:57;;;;;;;24.95;18.17;;;;;;;;;;5094572;27;20054;-86
2022/09/07 07:31:25;;;;;;;25.02;18.02;;;17.70;99.90;;;;;;5110450;28;20043;-86
2022/09/07 07:33:56;;;;;;;23.75;17.65;;;17.80;99.90;;;;;;5126969;28;20043;-86
2022/09/07 07:36:24;;;;;;;23.45;18.63;;;17.60;99.90;;;;;;5076665;28;20046;-87
2022/09/07 07:38:53;;;;;;;21.92;17.58;;;17.70;99.90;;;;;;5092873;28;20101;-88
2022/09/07 07:41:21;;;;;;;22.92;19.13;;;17.80;99.90;;;;;;5079365;28;20553;-88
2022/09/07 07:43:47;;;;;;;23.30;18.35;;;;;;;;;;5096254;28;20039;-88
2022/09/07 07:46:17;;;;;;;21.80;18.45;;;17.70;99.90;;;;;;5079839;28;20047;-87
2022/09/07 07:48:46;;;;;;;25.45;20.73;;;17.70;99.90;;;;;;5096583;28;20051;-88
2022/09/07 07:51:12;;;;;;;25.23;21.33;;;;;;;;;;5079863;28;20146;-87
2022/09/07 07:53:40;;;;;;;24.33;19.30;;;17.80;99.90;;;;;;5079329;28;20044;-88
2022/09/07 07:56:07;;;;;;;24.42;20.63;;;17.90;99.90;;;;;;5079675;28;20043;-88
2022/09/07 07:58:34;;;;;;;27.80;21.70;;;17.70;99.90;;;;;;5096960;28;20078;-88
2022/09/07 08:01:02;;;;;;;28.10;20.67;;;17.80;99.90;;;;;;5079237;28;20040;-87
2022/09/07 08:03:28;;;;;;;26.50;22.17;;;;;;;;;;5079176;28;20047;-87
2022/09/07 08:05:55;;;;;;;26.73;22.27;;;;;;;;;;5096561;28;20043;-87
2022/09/07 08:08:22;;;;;;;32.15;21.20;;;18.00;99.90;;;;;;5079216;28;20042;-87
2022/09/07 08:10:48;;;;;;;27.75;21.85;;;;;;;;;;5096565;28;20040;-88
2022/09/07 08:13:14;;;;;;;27.73;22.33;;;;;;;;;;5096162;28;20105;-87
2022/09/07 08:15:44;;;;;;;30.55;22.25;;;;;;;;;;5079220;28;20043;-87
2022/09/07 08:18:14;;;;;;;25.67;22.58;;;17.90;99.90;;;;;;5079671;28;20039;-87
2022/09/07 08:20:40;;;;;;;27.83;22.23;;;;;;;;;;5079449;28;20055;-88
2022/09/07 08:23:07;;;;;;;26.30;21.70;;;;;;;;;;5079383;28;20065;-86
2022/09/07 08:25:34;;;;;;;27.85;23.10;;;18.00;99.90;;;;;;5079168;28;20055;-86
2022/09/07 08:28:00;;;;;;;26.60;20.25;;;18.20;99.90;;;;;;5096009;28;20490;-86
2022/09/07 08:30:26;;;;;;;31.52;23.67;;;;;;;;;;5096011;28;20201;-86
2022/09/07 08:32:52;;;;;;;27.42;23.30;;;;;;;;;;5079877;28;20891;-86
2022/09/07 08:35:19;;;;;;;32.03;22.90;;;;;;;;;;5078523;28;20043;-87
2022/09/07 08:37:45;;;;;;;28.88;21.85;;;;;;;;;;5078653;28;20399;-86
2022/09/07 08:40:16;;;;;;;34.25;23.02;;;18.20;99.90;;;;;;5078870;28;20052;-87
2022/09/07 08:43:09;;;;;;;27.15;21.92;;;18.20;99.90;;;;;;5097373;28;20051;-86
2022/09/07 08:45:43;;;;;;;27.40;20.70;;;18.10;99.90;;;;;;5081798;28;20056;-87
2022/09/07 08:48:12;;;;;;;;;;;18.50;99.90;;;;;;5085144;28;20048;-87
2022/09/07 08:50:55;;;;;;;30.77;23.30;;;18.30;99.90;;;;;;5081610;28;19919;-87
2022/09/07 08:53:23;;;;;;;26.90;22.73;;;;;;;;;;5132368;27;20035;-87
2022/09/07 08:55:59;;;;;;;26.77;22.60;;;18.50;99.90;;;;;;5116463;27;20054;-86
2022/09/07 08:59:03;;;;;;;26.75;22.58;;;18.40;99.90;;;;;;5116639;27;20039;-86
2022/09/07 09:01:39;;;;;;;27.95;23.27;;;18.60;99.90;;;;;;5034807;28;20159;-87
2022/09/07 09:04:19;;;;;;;30.17;20.45;;;18.60;99.90;;;;;;5017832;28;20095;-87
2022/09/07 09:07:09;;;;;;;25.92;21.38;;;18.60;99.90;;;;;;5018300;28;20513;-86
2022/09/07 09:10:02;;;;;;;25.42;22.17;;;18.60;99.90;;;;;;5020112;28;20148;-87
2022/09/07 09:12:51;;;;;;;27.25;21.88;;;18.70;99.90;;;;;;5070211;28;20469;-87
2022/09/07 09:15:44;;;;;;;27.05;22.20;;;18.40;99.90;;;;;;5038000;28;20449;-87
2022/09/07 09:18:24;;;;;;;25.13;21.02;;;18.90;99.90;;;;;;5037760;28;20131;-87
2022/09/07 09:20:55;;;;;;;28.02;22.83;;;19.00;99.90;;;;;;5052592;28;20044;-88
2022/09/07 09:23:27;;;;;;;24.58;21.55;;;19.00;99.90;;;;;;5051729;28;20051;-88
2022/09/07 09:25:55;;;;;;;21.50;18.98;;;19.00;99.90;;;;;;5071936;28;20045;-88
2022/09/07 09:28:22;;;;;;;29.83;20.60;;;19.20;99.90;;;;;;5054307;28;20676;-88
2022/09/07 09:30:49;;;;;;;21.60;18.63;;;18.90;99.90;;;;;;5054695;28;20048;-88
2022/09/07 09:33:22;;;;;;;19.25;13.27;;;19.30;99.90;;;;;;5054835;28;20048;-88
2022/09/07 09:35:51;;;;;;;15.85;14.32;;;19.30;99.90;;;;;;5101764;27;20062;-88
2022/09/07 09:38:30;;;;;;;15.45;13.75;;;19.40;99.90;;;;;;5099228;27;20039;-88
2022/09/07 09:41:05;;;;;;;18.73;12.55;;;19.40;99.90;;;;;;5116169;27;20051;-88
2022/09/07 09:43:41;;;;;;;15.05;11.88;;;19.50;99.90;;;;;;5099563;27;20062;-88
2022/09/07 09:46:24;;;;;;;13.43;12.00;;;19.80;99.90;;;;;;5099514;27;20049;-87
2022/09/07 09:48:55;;;;;;;14.25;12.82;;;19.70;99.90;;;;;;5133372;27;20043;-86
2022/09/07 09:51:22;;;;;;;12.35;11.07;;;19.70;99.90;;;;;;5115935;27;20118;-88
2022/09/07 09:54:15;;;;;;;11.95;10.13;;;19.70;99.90;;;;;;5116176;27;20046;-88
2022/09/07 09:56:46;;;;;;;13.13;11.68;;;19.80;99.90;;;;;;5099338;27;20129;-87
2022/09/07 09:59:16;;;;;;;11.93;10.73;;;19.90;99.90;;;;;;5115992;27;20043;-88
2022/09/07 10:01:44;;;;;;;9.77;8.38;;;19.90;99.90;;;;;;5098810;27;20043;-89
2022/09/07 10:04:22;;;;;;;9.40;8.38;;;19.90;99.90;;;;;;5115206;27;20045;-89
2022/09/07 10:06:59;;;;;;;10.27;8.85;;;20.00;99.90;;;;;;5098796;27;20466;-88
2022/09/07 10:09:34;;;;;;;8.05;7.25;;;20.00;99.90;;;;;;5097818;27;20133;-88
2022/09/07 10:12:04;;;;;;;8.73;7.03;;;20.10;99.90;;;;;;5098845;27;20068;-88
2022/09/07 10:14:40;;;;;;;7.78;7.07;;;20.00;99.90;;;;;;5115615;27;20035;-88
2022/09/07 10:17:31;;;;;;;10.05;8.40;;;20.20;99.90;;;;;;5133701;27;20118;-88
2022/09/07 10:20:20;;;;;;;10.93;8.00;;;20.40;99.90;;;;;;5086520;28;20078;-88
2022/09/07 10:22:58;;;;;;;8.32;7.35;;;20.60;99.90;;;;;;5108600;28;20084;-89
2022/09/07 10:25:39;;;;;;;8.75;7.82;;;20.70;99.90;;;;;;5110290;28;20051;-89
2022/09/07 10:28:08;;;;;;;9.40;7.55;;;20.80;99.90;;;;;;5080929;28;20063;-89
2022/09/07 10:30:43;;;;;;;7.38;6.55;;;20.90;99.90;;;;;;5120703;28;20047;-89
2022/09/07 10:33:23;;;;;;;8.68;7.75;;;20.70;99.90;;;;;;5115167;28;20432;-88
2022/09/07 10:35:49;;;;;;;7.80;7.10;;;;;;;;;;5115286;28;20395;-89
2022/09/07 10:38:21;;;;;;;8.93;7.22;;;21.00;99.90;;;;;;5097462;28;20118;-88
2022/09/07 10:41:06;;;;;;;10.43;7.43;;;21.20;99.90;;;;;;5107293;28;20096;-87
2022/09/07 10:43:39;;;;;;;7.10;6.32;;;21.20;99.90;;;;;;5094398;28;20043;-89
2022/09/07 10:46:23;;;;;;;;;;;21.40;99.90;;;;;;5096661;28;20454;-89
2022/09/07 10:49:11;;;;;;;6.05;5.50;;;21.30;99.90;;;;;;5093805;28;19968;-89
2022/09/07 10:51:37;;;;;;;5.95;5.13;;;;;;;;;;5096239;28;20039;-87
2022/09/07 10:54:11;;;;;;;6.30;5.15;;;21.70;99.90;;;;;;5097969;28;20404;-88
2022/09/07 10:56:59;;;;;;;6.10;5.50;;;21.80;99.90;;;;;;5115727;28;20061;-88
2022/09/07 10:59:40;;;;;;;6.40;5.78;;;21.60;99.90;;;;;;5133346;28;20096;-88
2022/09/07 11:02:18;;;;;;;5.05;4.47;;;22.10;99.90;;;;;;5116070;28;20051;-89
2022/09/07 11:05:06;;;;;;;5.22;3.15;;;21.80;99.90;;;;;;5115593;28;20112;-88
2022/09/07 11:07:56;;;;;;;3.45;2.75;;;22.10;99.90;;;;;;5094244;28;20132;-87
2022/09/07 11:10:47;;;;;;;3.42;2.80;;;22.00;99.90;;;;;;5094887;28;20104;-88
2022/09/07 11:13:21;;;;;;;3.83;3.33;;;24.70;99.90;;;;;;5111177;28;20048;-88
2022/09/07 11:15:53;;;;;;;3.53;3.22;;;24.10;99.90;;;;;;5079947;28;20408;-87
2022/09/07 11:18:36;;;;;;;3.53;3.22;;;22.30;99.90;;;;;;5081443;28;20071;-89
2022/09/07 11:21:10;;;;;;;4.57;3.72;;;22.40;99.90;;;;;;5098247;28;20044;-87
2022/09/07 11:23:43;;;;;;;4.63;2.90;;;22.50;99.90;;;;;;5112150;27;20043;-87
2022/09/07 11:26:16;;;;;;;3.88;3.50;;;22.40;99.90;;;;;;5118919;27;20039;-88
2022/09/07 11:28:47;;;;;;;2.75;2.50;;;22.60;99.90;;;;;;5118310;27;20088;-87
2022/09/07 11:31:30;;;;;;;2.80;1.95;;;22.70;99.90;;;;;;5101297;27;20051;-88
2022/09/07 11:34:20;;;;;;;3.20;2.70;;;23.00;99.90;;;;;;5101964;27;20051;-88
2022/09/07 11:37:05;;;;;;;2.22;2.03;;;23.00;99.90;;;;;;5101466;27;20555;-88
2022/09/07 11:39:43;;;;;;;3.20;2.00;;;22.80;99.90;;;;;;5101500;27;20403;-86
2022/09/07 11:42:19;;;;;;;3.05;2.10;;;22.90;99.90;;;;;;5100753;27;20125;-87
2022/09/07 11:44:47;;;;;;;2.17;1.98;;;23.10;99.90;;;;;;5118169;27;20043;-88
2022/09/07 11:47:17;;;;;;;1.75;1.65;;;23.00;99.90;;;;;;5097570;28;20043;-87
2022/09/07 11:49:43;;;;;;;2.58;1.60;;;23.20;99.90;;;;;;5097534;28;20047;-87
2022/09/07 11:52:33;;;;;;;2.00;1.67;;;23.10;99.90;;;;;;5080931;28;20403;-87
2022/09/07 11:55:04;;;;;;;4.30;2.22;;;23.00;99.90;;;;;;5080994;28;20083;-88
2022/09/07 11:57:46;;;;;;;1.55;1.45;;;23.40;99.90;;;;;;5097988;28;20042;-86
2022/09/07 12:00:22;;;;;;;1.90;1.73;;;23.10;99.90;;;;;;5097698;28;20088;-87
2022/09/07 12:03:05;;;;;;;3.10;1.65;;;23.30;99.90;;;;;;5103124;28;20051;-88
2022/09/07 12:06:04;;;;;;;1.65;1.55;;;23.40;99.90;;;;;;5115286;28;20036;-88
2022/09/07 12:08:52;;;;;;;1.70;1.60;;;25.50;99.90;;;;;;5097654;28;20111;-85
2022/09/07 12:11:18;;;;;;;1.90;1.80;;;22.90;99.90;;;;;;5097592;28;20048;-88
2022/09/07 12:13:53;;;;;;;2.20;1.70;;;23.40;99.90;;;;;;5097830;28;20050;-87
2022/09/07 12:16:19;;;;;;;4.43;1.85;;;;;;;;;;5115953;28;20082;-88
2022/09/07 12:19:10;;;;;;;2.25;1.83;;;23.50;99.90;;;;;;5114685;28;20031;-87
2022/09/07 12:21:51;;;;;;;3.25;2.15;;;23.70;99.90;;;;;;5097800;28;20063;-86
2022/09/07 12:24:38;;;;;;;1.90;1.80;;;23.60;99.90;;;;;;5115701;28;20050;-86
2022/09/07 12:27:08;;;;;;;2.85;1.75;;;23.70;99.90;;;;;;5097166;28;20044;-87
2022/09/07 12:29:34;;;;;;;2.20;1.58;;;23.70;99.90;;;;;;5114313;28;20051;-87
2022/09/07 12:32:02;;;;;;;5.70;1.58;;;23.80;99.90;;;;;;5097169;28;20042;-87
2022/09/07 12:34:31;;;;;;;1.98;1.60;;;23.80;99.90;;;;;;5115779;28;20390;-85
2022/09/07 12:37:08;;;;;;;3.35;1.85;;;21.90;99.90;;;;;;5106672;27;20043;-85
2022/09/07 12:39:36;;;;;;;1.83;1.73;;;23.90;99.90;;;;;;5116653;27;20107;-84
2022/09/07 12:42:04;;;;;;;1.52;1.42;;;23.70;99.90;;;;;;5116979;27;20399;-85
2022/09/07 12:44:34;;;;;;;2.22;1.58;;;24.00;99.90;;;;;;5116155;27;20052;-86
2022/09/07 12:47:02;;;;;;;2.10;1.60;;;24.10;99.90;;;;;;5116221;27;20039;-85
2022/09/07 12:49:58;;;;;;;3.13;2.10;;;23.90;99.90;;;;;;5115869;27;20043;-85
2022/09/07 12:52:34;;;;;;;1.65;1.45;;;24.20;99.90;;;;;;5116397;27;20039;-85
2022/09/07 12:55:21;;;;;;;3.28;1.95;;;24.20;99.90;;;;;;5115884;27;20074;-85
2022/09/07 12:58:23;;;;;;;1.40;1.30;;;24.20;99.90;;;;;;5115819;27;20548;-84
2022/09/07 13:00:58;;;;;;;2.63;1.42;;;24.00;99.90;;;;;;5098368;27;20043;-85
2022/09/07 13:03:23;;;;;;;1.85;1.75;;;24.20;99.90;;;;;;5098588;27;20042;-85
2022/09/07 13:06:01;;;;;;;2.20;1.30;;;24.20;99.90;;;;;;5115609;27;20041;-84
2022/09/07 13:08:53;;;;;;;2.20;1.23;;;24.20;99.90;;;;;;5115604;27;20058;-87
2022/09/07 13:11:19;;;;;;;2.85;1.15;;;24.00;99.90;;;;;;5052565;28;20048;-87
2022/09/07 13:14:04;;;;;;;1.70;1.50;;;24.00;99.90;;;;;;5054015;28;20114;-86
2022/09/07 13:16:32;;;;;;;1.58;1.38;;;23.90;99.90;;;;;;5053232;28;20187;-85
2022/09/07 13:19:03;;;;;;;1.52;1.42;;;23.80;99.90;;;;;;5053608;28;20053;-85
2022/09/07 13:21:36;;;;;;;1.65;1.55;;;23.90;99.90;;;;;;5036818;28;20045;-84
2022/09/07 13:24:36;;;;;;;2.60;1.40;;;23.70;99.90;;;;;;5036859;28;20052;-84
2022/09/07 13:27:04;;;;;;;3.80;1.35;;;23.80;99.90;;;;;;4972106;28;20056;-84
2022/09/07 13:29:36;;;;;;;2.65;1.38;;;23.90;99.90;;;;;;4993919;28;20060;-83
2022/09/07 13:32:14;;;;;;;1.45;1.10;;;23.90;99.90;;;;;;4993886;28;20137;-86
2022/09/07 13:34:51;;;;;;;1.08;1.08;;;23.90;99.90;;;;;;4994162;28;20147;-85
2022/09/07 13:37:23;;;;;;;2.88;1.60;;;22.10;99.90;;;;;;4993261;28;20057;-87
2022/09/07 13:39:52;;;;;;;3.53;1.35;;;23.60;99.90;;;;;;4993837;28;20120;-85
2022/09/07 13:42:25;;;;;;;1.73;1.60;;;23.70;99.90;;;;;;4966410;28;20471;-85
2022/09/07 13:44:54;;;;;;;1.85;1.75;;;23.60;99.90;;;;;;4982061;28;20610;-85
2022/09/07 13:47:27;;;;;;;2.35;1.60;;;23.70;99.90;;;;;;5004405;28;20060;-85
2022/09/07 13:50:15;;;;;;;1.35;1.15;;;23.60;99.90;;;;;;5051868;28;20068;-86
2022/09/07 13:53:13;;;;;;;2.30;1.55;;;24.00;99.90;;;;;;5032582;28;20679;-87